This is the latest recevied weather packets stored in our database for station/object K6HFP. If no packets are shown the sender has not sent any weather packets the latest 1 day(s).
| Time | Temp. | Humidity | Pressure | Rain* | Wind** | Luminosity | Snow |
|---|---|---|---|---|---|---|---|
| 1778033222 | 15° C | 79% | 1014 hPa | 0 mm | 0.45 m/s, 156° | 27 W/m² | - |
| 1778032920 | 15° C | 80% | 1013.9 hPa | 0 mm | 0.89 m/s, 135° | 27 W/m² | - |
| 1778032618 | 15° C | 80% | 1013.8 hPa | 0 mm | 0.45 m/s, 108° | 29 W/m² | - |
| 1778032315 | 15° C | 79% | 1014 hPa | 0 mm | 0.89 m/s, 151° | 32 W/m² | - |
| 1778032012 | 15° C | 79% | 1013.9 hPa | 0 mm | 1.34 m/s, 160° | 39 W/m² | - |
| 1778031708 | 15° C | 79% | 1013.9 hPa | 0 mm | 2.24 m/s, 152° | 40 W/m² | - |
| 1778031406 | 15° C | 80% | 1014 hPa | 0 mm | 0.45 m/s, 120° | 50 W/m² | - |
| 1778031103 | 15° C | 79% | 1013.9 hPa | 0 mm | 1.34 m/s, 145° | 61 W/m² | - |
| 1778030799 | 15° C | 79% | 1013.9 hPa | 0 mm | 1.34 m/s, 158° | 57 W/m² | - |
| 1778030496 | 15° C | 79% | 1013.7 hPa | 0 mm | 1.34 m/s, 147° | 59 W/m² | - |
| 1778030193 | 15° C | 79% | 1013.7 hPa | 0 mm | 1.79 m/s, 169° | 61 W/m² | - |
| 1778029889 | 15° C | 78% | 1014 hPa | 0 mm | 2.24 m/s, 148° | 63 W/m² | - |
| 1778029588 | 15° C | 79% | 1013.8 hPa | 0 mm | 1.34 m/s, 116° | 77 W/m² | - |
| 1778029285 | 15° C | 78% | 1013.7 hPa | 0 mm | 2.24 m/s, 165° | 83 W/m² | - |
| 1778028982 | 15° C | 77% | 1013.8 hPa | 0 mm | 1.34 m/s, 138° | 75 W/m² | - |
| 1778028678 | 15.56° C | 76% | 1013.6 hPa | 0 mm | 1.79 m/s, 134° | 87 W/m² | - |
| 1778028375 | 15.56° C | 76% | 1013.3 hPa | 0 mm | 2.68 m/s, 167° | 105 W/m² | - |
| 1778028072 | 15.56° C | 76% | 1013.5 hPa | 0 mm | 1.34 m/s, 166° | 113 W/m² | - |
| 1778027768 | 15.56° C | 76% | 1013.5 hPa | 0 mm | 1.34 m/s, 143° | 124 W/m² | - |
| 1778027464 | 15.56° C | 76% | 1013.5 hPa | 0 mm | 1.34 m/s, 142° | 136 W/m² | - |
| 1778027160 | 15.56° C | 76% | 1013.5 hPa | 0 mm | 1.34 m/s, 128° | 123 W/m² | - |
| 1778026856 | 15.56° C | 76% | 1013.5 hPa | 0 mm | 1.34 m/s, 155° | 127 W/m² | - |
| 1778026553 | 15.56° C | 74% | 1013.4 hPa | 0 mm | 1.79 m/s, 171° | 157 W/m² | - |
| 1778026250 | 15.56° C | 75% | 1013.3 hPa | 0 mm | 1.34 m/s, 152° | 175 W/m² | - |
| 1778025947 | 15.56° C | 76% | 1013.5 hPa | 0 mm | 1.79 m/s, 161° | 178 W/m² | - |
* Rain latest hour (hover to see other rain measurements)
** Current wind speed in m/s (hover to see current wind gust speed)